logo
Search for airport 
image banner adimage banner adimage banner ad
image banner ad

SWDN - Dianopolis

Located in Dianopolis, Brazil

ICAO - SWDN, IATA - DNO

Data provided by Airmate  

General information

Coordinates: S11°35'43" W46°50'52"
Elevation is 2415 feet MSL.
Magnetic variation is -22.033333333° East
View others Airports in Tocatins

Operational data

Special qualification required
Current time UTC:
Current local time:
Weather at : - ( 0 km )
METAR: SAWG 231756Z 27034G48KT CAVOK 14/00 Q0985
View NOTAMs / SUP AIP / TFR affecting this airport [VIEW]
Communications frequencies: [VIEW]

Runways:

RWY identifierQFULength (ft)Width (ft)SurfaceLDA (ft)
10498098ASPH
28498098ASPH

Airport contact information

Address: Dianopolis Brazil

Satellite view of SWDN